createdAt,value
2022-09-12T10:38:09.301Z,101428.47
2022-09-12T10:40:39.228Z,101450.13
2022-09-12T10:43:24.889Z,101438.34
2022-09-12T10:45:52.343Z,101441.97
2022-09-12T10:48:31.919Z,101431.84
2022-09-12T10:51:01.531Z,101442.19
2022-09-12T10:53:34.712Z,101445.03
2022-09-12T10:56:10.635Z,101446.31
2022-09-12T10:58:50.116Z,101443.03
2022-09-12T11:01:32.911Z,101449.06
2022-09-12T11:04:26.536Z,101439.56
2022-09-12T11:07:08.674Z,101448.34
2022-09-12T11:10:06.542Z,101420.84
2022-09-12T11:12:55.067Z,101451.38
2022-09-12T11:15:57.123Z,101448.94
2022-09-12T11:19:03.902Z,101434.56
2022-09-12T11:21:47.566Z,101434.38
2022-09-12T11:24:19.043Z,101429.50
2022-09-12T11:27:15.156Z,101425.16
2022-09-12T11:30:03.908Z,101419.31
2022-09-12T11:32:42.802Z,101423.06
2022-09-12T11:35:17.580Z,101428.94
2022-09-12T11:38:09.536Z,101428.44
2022-09-12T11:40:46.741Z,101439.13
2022-09-12T11:43:31.059Z,101426.09
2022-09-12T11:48:49.368Z,101432.81
2022-09-12T11:51:26.005Z,101414.00
2022-09-12T11:54:16.129Z,101417.91
2022-09-12T11:56:48.134Z,101408.81
2022-09-12T11:59:34.053Z,101422.81
2022-09-12T12:02:04.123Z,101420.22
2022-09-12T12:04:46.161Z,101399.06
2022-09-12T12:07:13.212Z,101410.63
2022-09-12T12:09:50.706Z,101393.19
2022-09-12T12:12:25.809Z,101411.31
2022-09-12T12:14:55.946Z,101396.94
2022-09-12T12:17:25.394Z,101401.53
2022-09-12T12:20:07.478Z,101379.31
2022-09-12T12:22:36.311Z,101379.47
2022-09-12T12:25:12.614Z,101398.78
2022-09-12T12:28:02.367Z,101388.63
2022-09-12T12:30:33.770Z,101397.91
2022-09-12T12:33:07.737Z,101390.56
2022-09-12T12:35:44.080Z,101396.88
2022-09-12T12:38:46.402Z,101405.28
2022-09-12T12:41:19.362Z,101387.88
2022-09-12T12:43:49.718Z,101384.69
2022-09-12T12:46:21.522Z,101385.03
2022-09-12T12:49:10.122Z,101381.72
2022-09-12T12:51:56.341Z,101377.78
2022-09-12T12:54:48.141Z,101378.88
2022-09-12T12:57:19.970Z,101381.97
2022-09-12T13:00:28.081Z,101391.16
2022-09-12T13:03:07.387Z,101377.69
2022-09-12T13:05:53.953Z,101365.19
2022-09-12T13:08:21.242Z,101367.19
2022-09-12T13:10:52.935Z,101370.59
2022-09-12T13:13:32.259Z,101360.44
2022-09-12T13:15:59.359Z,101356.31
2022-09-12T13:18:30.542Z,101353.81
2022-09-12T13:21:04.892Z,101367.41
2022-09-12T13:23:33.091Z,101362.75
2022-09-12T13:26:02.489Z,101355.84
2022-09-12T13:28:31.403Z,101351.97
2022-09-12T13:31:04.618Z,101341.91
2022-09-12T13:33:42.311Z,101331.34
2022-09-12T13:36:30.415Z,101351.66
2022-09-12T13:39:06.534Z,101352.91
2022-09-12T13:41:42.081Z,101353.91
2022-09-12T13:44:16.643Z,101333.88
2022-09-12T13:46:44.563Z,101343.47
2022-09-12T13:49:31.107Z,101345.78
2022-09-12T13:52:06.002Z,101336.97
2022-09-12T13:54:38.199Z,101325.56
2022-09-12T13:57:06.169Z,101341.22
2022-09-12T13:59:44.583Z,101336.28
2022-09-12T14:02:20.578Z,101328.16
2022-09-12T14:05:07.831Z,101330.56
2022-09-12T14:07:40.781Z,101310.66
2022-09-12T14:10:08.209Z,101331.41
2022-09-12T14:12:43.806Z,101320.84
2022-09-12T14:15:23.815Z,101331.28
2022-09-12T14:17:54.049Z,101326.34
2022-09-12T14:20:23.663Z,101325.22
2022-09-12T14:22:52.667Z,101319.34
2022-09-12T14:25:22.919Z,101328.72
2022-09-12T14:27:59.455Z,101317.97
2022-09-12T14:30:32.859Z,101321.31
2022-09-12T14:33:05.915Z,101316.47
2022-09-12T14:35:33.825Z,101314.63
2022-09-12T14:38:10.412Z,101301.91
2022-09-12T14:41:10.164Z,101310.16
2022-09-12T14:43:41.524Z,101314.03
2022-09-12T14:46:21.730Z,101300.16
2022-09-12T14:49:00.435Z,101300.59
2022-09-12T14:51:49.389Z,101292.88
2022-09-12T14:54:34.264Z,101299.06
2022-09-12T14:57:31.018Z,101294.09
2022-09-12T15:00:22.096Z,101288.88
2022-09-12T15:02:52.539Z,101285.59
2022-09-12T15:05:25.918Z,101283.53
2022-09-12T15:08:00.688Z,101280.78
2022-09-12T15:10:38.037Z,101278.16
2022-09-12T15:13:14.641Z,101268.50
2022-09-12T15:15:44.739Z,101274.31
2022-09-12T15:18:12.754Z,101267.66
2022-09-12T15:20:43.189Z,101273.53
2022-09-12T15:23:28.569Z,101268.84
2022-09-12T15:25:56.034Z,101263.38
2022-09-12T15:28:24.310Z,101269.44
2022-09-12T15:30:53.833Z,101235.31
2022-09-12T15:33:24.385Z,101261.44
2022-09-12T15:35:52.767Z,101253.06
2022-09-12T15:38:25.803Z,101242.00
2022-09-12T15:40:54.963Z,101241.56
2022-09-12T15:43:53.746Z,101229.75
2022-09-12T15:46:21.226Z,101232.19
2022-09-12T15:48:56.097Z,101252.38
2022-09-12T15:51:25.747Z,101221.25
2022-09-12T15:53:53.292Z,101232.66
2022-09-12T15:56:22.815Z,101240.47
2022-09-12T15:58:58.790Z,101206.78
2022-09-12T16:01:28.804Z,101236.03
2022-09-12T16:03:56.668Z,101229.41
2022-09-12T16:06:37.233Z,101189.59
2022-09-12T16:09:05.106Z,101209.50
2022-09-12T16:11:33.455Z,101209.25
2022-09-12T16:14:00.878Z,101204.53
2022-09-12T16:16:28.461Z,101223.97
2022-09-12T16:23:26.331Z,101188.88
2022-09-12T16:26:02.312Z,101226.81
2022-09-12T16:28:30.467Z,101225.31
2022-09-12T16:30:59.360Z,101208.38
2022-09-12T16:33:33.573Z,101225.75
2022-09-12T16:36:06.786Z,101207.63
2022-09-12T16:38:36.072Z,101230.31
2022-09-12T16:41:08.062Z,101232.78
2022-09-12T16:43:37.301Z,101211.81
2022-09-12T16:46:16.771Z,101223.91
2022-09-12T16:48:54.000Z,101227.66
2022-09-12T16:51:24.344Z,101206.28
2022-09-12T16:53:54.188Z,101222.47
2022-09-12T16:56:22.582Z,101202.00
2022-09-12T16:58:52.560Z,101212.38
2022-09-12T17:01:23.951Z,101200.72
2022-09-12T17:03:58.434Z,101209.63
2022-09-12T17:06:27.302Z,101204.47
2022-09-12T17:08:58.252Z,101206.91
2022-09-12T17:11:30.897Z,101188.84
2022-09-12T17:14:05.040Z,101207.03
2022-09-12T17:16:42.243Z,101187.41
2022-09-12T17:19:19.018Z,101215.63
2022-09-12T17:21:50.545Z,101210.00
2022-09-12T17:24:19.302Z,101198.75
2022-09-12T17:26:52.067Z,101210.09
2022-09-12T17:29:19.746Z,101212.88
2022-09-12T17:31:48.506Z,101196.72
2022-09-12T17:34:16.742Z,101210.88
2022-09-12T17:37:03.185Z,101198.06
2022-09-12T17:39:30.534Z,101193.59
2022-09-12T17:42:02.838Z,101184.34
2022-09-12T17:44:38.040Z,101194.84
2022-09-12T17:47:05.847Z,101192.03
2022-09-12T17:49:33.753Z,101159.81
2022-09-12T17:52:17.660Z,101182.44
2022-09-12T17:54:45.494Z,101186.91
2022-09-12T18:04:23.042Z,101182.25
2022-09-12T18:22:50.486Z,101188.44
2022-09-12T18:25:17.522Z,101211.44
2022-09-12T18:27:44.720Z,101196.56
2022-09-12T18:30:21.805Z,101218.34
2022-09-12T18:32:50.361Z,101216.34
2022-09-12T18:35:17.935Z,101214.75
2022-09-12T18:37:45.178Z,101200.19
2022-09-12T18:40:12.355Z,101210.75
2022-09-12T18:42:39.526Z,101218.47
2022-09-12T18:45:07.418Z,101206.78
2022-09-12T18:47:34.518Z,101218.50
2022-09-12T18:50:01.670Z,101213.66
2022-09-12T18:52:28.933Z,101221.34
2022-09-12T18:54:55.931Z,101221.38
2022-09-12T18:57:25.186Z,101226.66
2022-09-12T18:59:53.266Z,101223.84
2022-09-12T19:02:20.587Z,101206.53
2022-09-12T19:04:47.680Z,101226.69
2022-09-12T19:07:15.426Z,101226.28
2022-09-12T19:09:42.452Z,101232.75
2022-09-12T19:12:09.587Z,101232.81
2022-09-12T19:16:18.709Z,101246.97
2022-09-12T19:18:26.812Z,101245.78
2022-09-12T19:20:54.319Z,101256.69
2022-09-12T19:23:21.508Z,101247.44
2022-09-12T19:26:05.591Z,101269.22
2022-09-12T19:28:33.646Z,101258.72
2022-09-12T19:31:04.131Z,101265.22
2022-09-12T19:39:09.102Z,101250.69
2022-09-12T19:45:26.030Z,101244.25
2022-09-12T19:47:55.670Z,101259.19
2022-09-12T19:50:25.129Z,101250.34
2022-09-12T19:52:52.499Z,101284.66
2022-09-12T19:55:20.148Z,101265.28
2022-09-12T19:57:48.773Z,101282.25
2022-09-12T20:00:19.102Z,101296.00
2022-09-12T20:02:51.057Z,101276.59
2022-09-12T20:05:21.057Z,101279.00
2022-09-12T20:07:48.470Z,101282.25
2022-09-12T20:15:54.253Z,101287.91
2022-09-12T20:18:22.331Z,101269.31
2022-09-12T20:20:49.659Z,101268.09
2022-09-12T20:23:18.021Z,101266.88
2022-09-12T20:25:45.110Z,101259.63
2022-09-12T20:29:13.823Z,101246.69
2022-09-12T20:31:43.971Z,101272.13
2022-09-12T20:34:20.514Z,101280.63
2022-09-12T20:36:48.270Z,101262.03
2022-09-12T20:39:27.043Z,101289.09
2022-09-12T20:42:05.789Z,101266.91
2022-09-12T20:44:47.114Z,101278.19
2022-09-12T20:47:17.539Z,101279.81
2022-09-12T20:52:53.075Z,101287.09
2022-09-12T20:55:24.362Z,101303.66
2022-09-12T20:58:02.703Z,101286.22
2022-09-12T21:00:58.563Z,101267.63
2022-09-12T21:03:35.203Z,101273.31
